Terminal Aerodrome Forecast
Issued by NWS Central Illinois

Home | Current Version | Previous Version | Text Only | Print | Product List | Glossary On
Versions: 1 2 3 4 5 6 7 8 9 10 11 12 13 14 15 16 17 18 19 20 21
000
FTUS43 KILX 011700
TAFPIA
TAF
KPIA 011722Z 0118/0218 16008KT P6SM SCT070 BKN250
     FM012000 16008KT P6SM VCSH BKN070
     FM020000 14006KT P6SM BKN060
     FM020300 15008KT P6SM VCTS OVC040CB
     FM020600 16007KT 4SM SHRA BR VCTS OVC035CB
     FM021000 17006KT P6SM OVC070
     FM021500 18010KT P6SM VCTS OVC035CB=

USA.gov is the U.S. government's official web portal to all federal, state and local government web resources and services.